createdAt,value
2023-04-21T00:02:25.904Z,7.43
2023-04-21T00:04:56.588Z,8.20
2023-04-21T00:07:24.924Z,8.38
2023-04-21T00:09:53.065Z,7.95
2023-04-21T00:12:21.435Z,8.20
2023-04-21T00:14:49.521Z,7.63
2023-04-21T00:17:17.708Z,7.93
2023-04-21T00:19:45.968Z,7.32
2023-04-21T00:22:15.820Z,7.80
2023-04-21T00:24:43.919Z,7.47
2023-04-21T00:27:13.429Z,8.02
2023-04-21T00:29:41.586Z,7.22
2023-04-21T00:32:11.075Z,8.00
2023-04-21T00:34:39.283Z,7.57
2023-04-21T00:37:07.521Z,7.43
2023-04-21T00:39:37.049Z,7.78
2023-04-21T00:42:05.567Z,7.50
2023-04-21T00:44:33.780Z,7.65
2023-04-21T00:47:02.191Z,7.43
2023-04-21T00:49:30.606Z,7.40
2023-04-21T00:51:59.708Z,7.00
2023-04-21T00:54:28.900Z,7.80
2023-04-21T00:57:00.533Z,7.43
2023-04-21T00:59:30.584Z,6.90
2023-04-21T01:01:59.085Z,7.05
2023-04-21T01:04:27.458Z,7.43
2023-04-21T01:06:55.654Z,7.78
2023-04-21T01:09:24.773Z,7.68
2023-04-21T01:12:04.445Z,7.38
2023-04-21T01:14:35.682Z,7.68
2023-04-21T01:17:06.303Z,7.60
2023-04-21T01:19:39.420Z,7.40
2023-04-21T01:22:11.297Z,8.35
2023-04-21T01:24:41.145Z,7.47
2023-04-21T01:27:13.763Z,7.28
2023-04-21T01:29:43.674Z,7.47
2023-04-21T01:32:14.768Z,7.47
2023-04-21T01:34:43.820Z,7.60
2023-04-21T01:37:14.503Z,7.45
2023-04-21T01:39:44.023Z,7.13
2023-04-21T01:42:13.388Z,6.85
2023-04-21T01:44:41.758Z,7.55
2023-04-21T01:47:11.513Z,6.95
2023-04-21T01:49:41.055Z,7.35
2023-04-21T01:52:09.255Z,6.65
2023-04-21T01:54:38.906Z,7.60
2023-04-21T01:57:07.521Z,7.20
2023-04-21T01:59:36.206Z,8.02
2023-04-21T02:02:04.571Z,7.18
2023-04-21T02:04:35.461Z,7.10
2023-04-21T02:07:04.048Z,8.00
2023-04-21T02:09:34.041Z,7.70
2023-04-21T02:12:03.795Z,7.10
2023-04-21T02:14:31.896Z,7.40
2023-04-21T02:17:00.626Z,7.25
2023-04-21T02:19:29.846Z,7.20
2023-04-21T02:21:58.568Z,7.20
2023-04-21T02:24:27.199Z,7.00
2023-04-21T02:26:55.453Z,7.07
2023-04-21T02:29:24.974Z,7.55
2023-04-21T02:32:01.236Z,6.88
2023-04-21T02:34:31.804Z,6.85
2023-04-21T02:37:00.347Z,7.72
2023-04-21T02:39:28.634Z,7.50
2023-04-21T02:41:56.918Z,6.95
2023-04-21T02:44:26.538Z,6.93
2023-04-21T02:46:54.698Z,6.63
2023-04-21T02:49:22.935Z,7.30
2023-04-21T02:51:51.646Z,7.18
2023-04-21T02:54:19.941Z,7.30
2023-04-21T02:56:49.548Z,7.50
2023-04-21T02:59:18.154Z,7.60
2023-04-21T03:01:49.270Z,7.30
2023-04-21T03:04:17.709Z,7.07
2023-04-21T03:06:46.117Z,6.95
2023-04-21T03:09:14.412Z,7.45
2023-04-21T03:11:42.654Z,7.28
2023-04-21T03:14:10.895Z,7.32
2023-04-21T03:16:39.059Z,7.53
2023-04-21T03:19:09.598Z,8.48
2023-04-21T03:21:39.409Z,7.30
2023-04-21T03:24:08.453Z,7.63
2023-04-21T03:26:36.913Z,7.55
2023-04-21T03:29:05.330Z,7.03
2023-04-21T03:31:33.718Z,7.47
2023-04-21T03:34:02.202Z,7.20
2023-04-21T03:36:32.332Z,7.50
2023-04-21T03:39:12.818Z,8.10
2023-04-21T03:41:48.340Z,7.85
2023-04-21T03:44:16.623Z,7.75
2023-04-21T03:46:44.879Z,7.60
2023-04-21T03:49:12.980Z,7.63
2023-04-21T03:51:42.508Z,7.85
2023-04-21T03:54:10.594Z,7.70
2023-04-21T03:56:38.846Z,7.97
2023-04-21T03:59:07.215Z,7.95
2023-04-21T04:01:35.803Z,8.32
2023-04-21T04:04:04.217Z,7.22
2023-04-21T04:06:33.227Z,7.50
2023-04-21T04:09:04.683Z,7.30
2023-04-21T04:11:32.989Z,7.70
2023-04-21T04:14:01.208Z,6.68
2023-04-21T04:16:30.009Z,7.22
2023-04-21T04:18:58.229Z,6.80
2023-04-21T04:21:27.562Z,7.22
2023-04-21T04:23:57.729Z,7.43
2023-04-21T04:26:28.398Z,7.03
2023-04-21T04:28:57.220Z,7.30
2023-04-21T04:31:25.945Z,7.82
2023-04-21T04:33:55.479Z,7.20
2023-04-21T04:36:24.182Z,7.30
2023-04-21T04:38:52.639Z,7.30
2023-04-21T04:41:21.046Z,6.90
2023-04-21T04:43:51.183Z,7.10
2023-04-21T04:46:20.926Z,7.10
2023-04-21T04:48:49.388Z,6.75
2023-04-21T04:51:17.531Z,6.47
2023-04-21T04:53:45.887Z,6.38
2023-04-21T04:56:14.010Z,7.18
2023-04-21T04:58:42.211Z,6.63
2023-04-21T05:01:16.054Z,6.30
2023-04-21T05:03:45.161Z,6.32
2023-04-21T05:06:14.112Z,6.32
2023-04-21T05:08:42.517Z,7.10
2023-04-21T05:11:10.633Z,6.68
2023-04-21T05:13:40.209Z,5.68
2023-04-21T05:16:10.239Z,8.05
2023-04-21T05:18:39.996Z,6.13
2023-04-21T05:21:08.358Z,6.30
2023-04-21T05:23:36.734Z,6.53
2023-04-21T05:26:05.163Z,6.10
2023-04-21T05:28:35.846Z,6.72
2023-04-21T05:31:04.211Z,6.50
2023-04-21T05:33:32.521Z,6.38
2023-04-21T05:36:01.981Z,6.70
2023-04-21T05:38:30.552Z,6.82
2023-04-21T05:40:58.688Z,6.45
2023-04-21T05:43:26.877Z,5.70
2023-04-21T05:45:55.164Z,6.20
2023-04-21T05:48:24.538Z,5.88
2023-04-21T05:50:53.000Z,5.95
2023-04-21T05:53:23.891Z,6.43
2023-04-21T05:55:52.057Z,6.43
2023-04-21T05:58:20.204Z,5.68
2023-04-21T06:00:49.251Z,7.57
2023-04-21T06:03:18.297Z,6.18
2023-04-21T06:05:47.492Z,5.80
2023-04-21T06:08:15.828Z,6.38
2023-04-21T06:10:45.334Z,5.90
2023-04-21T06:13:13.504Z,5.50
2023-04-21T06:15:42.062Z,5.53
2023-04-21T06:18:10.705Z,4.95
2023-04-21T06:20:40.927Z,5.25
2023-04-21T06:23:09.870Z,5.45
2023-04-21T06:25:38.034Z,5.18
2023-04-21T06:28:07.633Z,5.20
2023-04-21T06:30:36.272Z,4.90
2023-04-21T06:33:06.852Z,5.28
2023-04-21T06:35:35.137Z,4.45
2023-04-21T06:38:03.502Z,4.85
2023-04-21T06:40:31.741Z,4.75
2023-04-21T06:42:59.853Z,5.03
2023-04-21T06:45:29.447Z,5.50
2023-04-21T06:47:57.541Z,4.85
2023-04-21T06:50:25.777Z,5.38
2023-04-21T06:52:53.910Z,5.00
2023-04-21T06:55:22.354Z,4.47
2023-04-21T06:57:50.760Z,5.20
2023-04-21T07:00:19.640Z,5.13
2023-04-21T07:02:49.387Z,4.88
2023-04-21T07:05:17.877Z,4.90
2023-04-21T07:07:46.413Z,4.63
2023-04-21T07:10:19.317Z,4.20
2023-04-21T07:12:47.931Z,4.72
2023-04-21T07:15:16.035Z,4.30
2023-04-21T07:17:44.396Z,3.70
2023-04-21T07:20:14.216Z,3.72
2023-04-21T07:22:42.397Z,4.18
2023-04-21T07:25:13.397Z,4.13
2023-04-21T07:27:41.737Z,4.03
2023-04-21T07:30:10.509Z,3.30
2023-04-21T07:32:39.137Z,3.60
2023-04-21T07:35:08.281Z,3.53
2023-04-21T07:37:37.863Z,3.13
2023-04-21T07:40:06.981Z,3.92
2023-04-21T07:42:35.245Z,3.78
2023-04-21T07:45:03.397Z,3.92
2023-04-21T07:47:31.928Z,3.67
2023-04-21T07:50:00.255Z,3.22
2023-04-21T07:52:28.528Z,3.60
2023-04-21T07:54:58.229Z,3.90
2023-04-21T07:57:26.429Z,3.55
2023-04-21T07:59:54.600Z,3.28
2023-04-21T08:02:23.617Z,3.45
2023-04-21T08:04:52.190Z,3.40
2023-04-21T08:07:20.584Z,3.65
2023-04-21T08:09:48.897Z,3.50
2023-04-21T08:12:18.613Z,3.63
2023-04-21T08:14:46.825Z,3.38
2023-04-21T08:17:15.106Z,3.00
2023-04-21T08:19:43.428Z,3.05
2023-04-21T08:22:11.980Z,3.63
2023-04-21T08:24:40.113Z,3.15
2023-04-21T08:27:08.376Z,3.30
2023-04-21T08:29:37.997Z,3.25
2023-04-21T08:32:06.677Z,3.15
2023-04-21T08:34:35.218Z,3.45
2023-04-21T08:37:03.500Z,2.90
2023-04-21T08:39:31.580Z,3.50
2023-04-21T08:42:01.691Z,3.78
2023-04-21T08:44:29.796Z,3.15
2023-04-21T08:47:00.706Z,2.65
2023-04-21T08:49:31.802Z,3.00
2023-04-21T08:52:01.681Z,2.80
2023-04-21T08:54:30.270Z,2.80
2023-04-21T08:57:08.031Z,2.90
2023-04-21T08:59:40.368Z,3.05
2023-04-21T09:02:12.012Z,2.70
2023-04-21T09:04:41.266Z,2.70
2023-04-21T09:07:10.146Z,2.80
2023-04-21T09:09:54.432Z,3.10
2023-04-21T09:12:22.729Z,2.92
2023-04-21T09:14:51.441Z,3.17
2023-04-21T09:17:23.976Z,2.88
2023-04-21T09:19:52.314Z,3.15
2023-04-21T09:22:20.621Z,2.92
2023-04-21T09:24:58.457Z,2.60
2023-04-21T09:27:26.664Z,2.50
2023-04-21T09:29:54.801Z,2.40
2023-04-21T09:32:24.457Z,2.92
2023-04-21T09:34:52.611Z,2.70
2023-04-21T09:37:24.336Z,2.83
2023-04-21T09:40:04.117Z,3.00
2023-04-21T09:42:37.110Z,2.72
2023-04-21T09:45:29.055Z,3.17
2023-04-21T09:48:01.980Z,3.03
2023-04-21T09:53:05.130Z,2.72
2023-04-21T09:55:34.865Z,2.70
2023-04-21T09:58:05.473Z,3.03
2023-04-21T10:00:39.395Z,3.17
2023-04-21T10:03:12.276Z,3.13
2023-04-21T10:05:42.807Z,2.88
2023-04-21T10:08:12.645Z,2.80
2023-04-21T10:10:41.501Z,2.97
2023-04-21T10:13:15.940Z,2.80
2023-04-21T10:15:44.236Z,2.78
2023-04-21T10:18:18.609Z,2.92
2023-04-21T10:20:54.650Z,3.40
2023-04-21T10:23:30.413Z,2.70
2023-04-21T10:26:11.622Z,3.33
2023-04-21T10:28:48.222Z,3.08
2023-04-21T10:31:25.497Z,3.00
2023-04-21T10:34:23.830Z,3.00
2023-04-21T10:37:15.685Z,2.60
2023-04-21T10:39:55.002Z,2.25
2023-04-21T10:42:31.326Z,2.67
2023-04-21T10:45:11.269Z,2.28
2023-04-21T10:47:42.974Z,2.50
2023-04-21T10:50:21.176Z,2.70
2023-04-21T10:52:55.565Z,3.10
2023-04-21T10:55:27.097Z,3.15
2023-04-21T10:57:55.424Z,2.80
2023-04-21T11:00:25.518Z,2.58
2023-04-21T11:03:02.763Z,2.78
2023-04-21T11:05:36.437Z,3.05
2023-04-21T11:08:06.572Z,2.80
2023-04-21T11:10:55.056Z,3.38
2023-04-21T11:13:24.601Z,3.28
2023-04-21T11:16:06.004Z,2.90
2023-04-21T11:18:42.481Z,3.25
2023-04-21T11:21:17.766Z,3.92
2023-04-21T11:23:53.749Z,3.28
2023-04-21T11:26:32.605Z,2.90
2023-04-21T11:29:07.974Z,3.45
2023-04-21T11:31:37.562Z,3.33
2023-04-21T11:34:07.423Z,3.20
2023-04-21T11:36:38.571Z,2.88
2023-04-21T11:39:10.235Z,3.60
2023-04-21T11:41:41.218Z,2.80
2023-04-21T11:44:09.830Z,2.80
2023-04-21T11:46:38.363Z,2.78
2023-04-21T11:49:08.017Z,3.30
2023-04-21T11:51:39.126Z,3.33
2023-04-21T11:54:09.085Z,3.08
2023-04-21T11:56:38.719Z,3.03
2023-04-21T11:59:10.985Z,3.10
2023-04-21T12:01:44.681Z,3.10
2023-04-21T12:04:16.397Z,2.80
2023-04-21T12:06:46.889Z,2.97
2023-04-21T12:09:19.808Z,3.08
2023-04-21T12:11:50.158Z,3.17
2023-04-21T12:14:18.857Z,2.97
2023-04-21T12:16:51.643Z,3.47
2023-04-21T12:19:26.763Z,2.67
2023-04-21T12:21:57.513Z,2.38
2023-04-21T12:24:26.085Z,2.67
2023-04-21T12:26:54.731Z,2.50
2023-04-21T12:29:23.024Z,2.80
2023-04-21T12:31:51.178Z,2.78
2023-04-21T12:34:19.411Z,2.25
2023-04-21T12:36:47.998Z,2.80
2023-04-21T12:39:18.949Z,2.78
2023-04-21T12:41:47.670Z,2.75
2023-04-21T12:44:16.095Z,2.95
2023-04-21T12:46:44.320Z,2.70
2023-04-21T12:49:12.441Z,2.67
2023-04-21T12:51:40.662Z,2.92
2023-04-21T12:54:08.820Z,2.35
2023-04-21T12:56:39.717Z,2.58
2023-04-21T12:59:09.896Z,3.00
2023-04-21T13:01:38.309Z,3.17
2023-04-21T13:04:06.835Z,2.40
2023-04-21T13:06:35.314Z,2.67
2023-04-21T13:09:04.647Z,2.60
2023-04-21T13:11:32.764Z,2.92
2023-04-21T13:14:04.107Z,3.67
2023-04-21T13:16:32.721Z,3.05
2023-04-21T13:19:00.883Z,2.45
2023-04-21T13:21:29.286Z,2.63
2023-04-21T13:23:57.460Z,2.90
2023-04-21T13:26:25.884Z,2.88
2023-04-21T13:28:54.081Z,2.75
2023-04-21T13:31:23.762Z,2.92
2023-04-21T13:33:53.775Z,2.90
2023-04-21T13:36:23.204Z,2.90
2023-04-21T13:38:53.978Z,3.00
2023-04-21T13:41:22.220Z,2.70
2023-04-21T13:43:50.417Z,2.83
2023-04-21T13:46:18.692Z,3.10
2023-04-21T13:48:48.312Z,3.10
2023-04-21T13:51:16.514Z,3.08
2023-04-21T13:53:44.633Z,2.83
2023-04-21T13:56:14.090Z,2.80
2023-04-21T13:58:42.740Z,3.20
2023-04-21T14:01:11.259Z,3.00
2023-04-21T14:03:39.720Z,3.20
2023-04-21T14:06:10.082Z,2.92
2023-04-21T14:08:38.309Z,2.75
2023-04-21T14:11:09.783Z,2.78
2023-04-21T14:13:47.853Z,2.60
2023-04-21T14:16:26.477Z,2.42
2023-04-21T14:18:54.755Z,2.25
2023-04-21T14:21:24.369Z,2.58
2023-04-21T14:23:52.557Z,2.60
2023-04-21T14:26:21.779Z,2.75
2023-04-21T14:28:50.928Z,2.53
2023-04-21T14:31:21.638Z,2.38
2023-04-21T14:33:50.432Z,2.40
2023-04-21T14:36:18.667Z,2.38
2023-04-21T14:38:48.707Z,2.55
2023-04-21T14:41:19.909Z,2.63
2023-04-21T14:43:49.839Z,2.42
2023-04-21T14:46:18.776Z,2.47
2023-04-21T14:48:47.337Z,2.40
2023-04-21T14:51:15.604Z,2.38
2023-04-21T14:53:43.825Z,2.63
2023-04-21T14:56:13.348Z,2.70
2023-04-21T14:58:41.554Z,2.63
2023-04-21T15:01:10.671Z,2.38
2023-04-21T15:03:39.206Z,2.95
2023-04-21T15:06:07.803Z,2.40
2023-04-21T15:08:36.157Z,2.60
2023-04-21T15:11:05.178Z,2.50
2023-04-21T15:13:35.079Z,2.38
2023-04-21T15:16:03.343Z,2.70
2023-04-21T15:18:31.519Z,2.55
2023-04-21T15:20:59.607Z,2.83
2023-04-21T15:23:29.213Z,2.97
2023-04-21T15:25:58.075Z,2.53
2023-04-21T15:28:26.641Z,2.30
2023-04-21T15:30:56.432Z,2.30
2023-04-21T15:33:24.712Z,2.17
2023-04-21T15:35:52.958Z,2.50
2023-04-21T15:38:21.975Z,2.50
2023-04-21T15:41:00.255Z,2.33
2023-04-21T15:43:30.216Z,2.60
2023-04-21T15:45:59.946Z,2.50
2023-04-21T15:48:28.244Z,2.33
2023-04-21T15:50:57.757Z,2.33
2023-04-21T15:53:26.312Z,2.47
2023-04-21T15:55:54.567Z,2.30
2023-04-21T15:58:22.849Z,2.97
2023-04-21T16:00:51.113Z,2.67
2023-04-21T16:03:21.628Z,2.47
2023-04-21T16:05:50.621Z,2.60
2023-04-21T16:08:19.068Z,2.50
2023-04-21T16:10:47.285Z,2.88
2023-04-21T16:13:15.652Z,2.65
2023-04-21T16:15:43.892Z,2.60
2023-04-21T16:18:12.428Z,2.80
2023-04-21T16:20:43.714Z,2.65
2023-04-21T16:23:12.041Z,2.40
2023-04-21T16:25:40.341Z,2.47
2023-04-21T16:28:09.433Z,2.55
2023-04-21T16:30:38.582Z,2.85
2023-04-21T16:33:07.191Z,2.67
2023-04-21T16:35:36.113Z,3.38
2023-04-21T16:38:06.140Z,3.28
2023-04-21T16:40:34.716Z,4.03
2023-04-21T16:43:03.541Z,3.97
2023-04-21T16:45:31.836Z,3.20
2023-04-21T16:48:00.200Z,3.17
2023-04-21T16:50:28.527Z,2.78
2023-04-21T16:52:56.889Z,2.67
2023-04-21T16:55:26.426Z,3.10
2023-04-21T16:57:54.902Z,3.05
2023-04-21T17:00:23.475Z,4.38
2023-04-21T17:02:51.926Z,4.15
2023-04-21T17:05:20.199Z,3.00
2023-04-21T17:07:48.450Z,3.20
2023-04-21T17:10:16.608Z,3.35
2023-04-21T17:12:46.375Z,3.22
2023-04-21T17:15:14.653Z,3.22
2023-04-21T17:17:44.936Z,2.72
2023-04-21T17:20:15.095Z,2.85
2023-04-21T17:22:44.059Z,2.90
2023-04-21T17:25:12.725Z,2.63
2023-04-21T17:27:41.708Z,3.00
2023-04-21T17:30:12.863Z,2.92
2023-04-21T17:32:41.621Z,2.90
2023-04-21T17:35:10.460Z,3.08
2023-04-21T17:37:38.838Z,3.10
2023-04-21T17:40:09.587Z,3.22
2023-04-21T17:42:37.950Z,3.17
2023-04-21T17:45:08.570Z,3.38
2023-04-21T17:47:38.228Z,3.60
2023-04-21T17:50:08.867Z,3.10
2023-04-21T17:52:37.108Z,3.20
2023-04-21T17:55:05.701Z,3.33
2023-04-21T17:57:34.017Z,3.25
2023-04-21T18:00:07.107Z,3.03
2023-04-21T18:02:35.452Z,3.28
2023-04-21T18:05:05.761Z,3.85
2023-04-21T18:07:34.086Z,3.70
2023-04-21T18:10:02.222Z,3.80
2023-04-21T18:12:30.813Z,3.88
2023-04-21T18:14:59.006Z,3.83
2023-04-21T18:17:27.447Z,3.97
2023-04-21T18:19:55.775Z,4.63
2023-04-21T18:22:26.095Z,4.40
2023-04-21T18:24:54.324Z,4.10
2023-04-21T18:27:22.575Z,4.65
2023-04-21T18:29:51.335Z,3.60
2023-04-21T18:32:19.609Z,4.15
2023-04-21T18:34:47.910Z,4.63
2023-04-21T18:37:16.320Z,4.30
2023-04-21T18:39:46.107Z,4.50
2023-04-21T18:42:14.339Z,4.10
2023-04-21T18:44:42.612Z,4.05
2023-04-21T18:47:12.042Z,5.20
2023-04-21T18:49:41.028Z,4.90
2023-04-21T18:52:09.327Z,4.80
2023-04-21T18:54:38.036Z,5.05
2023-04-21T18:57:08.684Z,5.25
2023-04-21T18:59:37.262Z,4.55
2023-04-21T19:02:07.435Z,4.13
2023-04-21T19:04:36.258Z,5.00
2023-04-21T19:07:08.347Z,4.70
2023-04-21T19:09:36.683Z,5.03
2023-04-21T19:12:05.393Z,5.80
2023-04-21T19:14:46.103Z,6.10
2023-04-21T19:17:15.596Z,8.05
2023-04-21T19:19:44.077Z,7.45
2023-04-21T19:22:12.578Z,8.88
2023-04-21T19:24:41.049Z,9.05
2023-04-21T19:27:09.539Z,8.50
2023-04-21T19:29:39.248Z,9.32
2023-04-21T19:32:08.146Z,8.25
2023-04-21T19:34:36.518Z,10.25
2023-04-21T19:37:05.485Z,8.98
2023-04-21T19:39:34.312Z,7.53
2023-04-21T19:42:02.724Z,7.35
2023-04-21T19:44:31.324Z,6.35
2023-04-21T19:47:01.306Z,6.72
2023-04-21T19:49:30.216Z,28.52
2023-04-21T19:51:58.802Z,26.95
2023-04-21T19:54:27.012Z,12.02
2023-04-21T19:56:57.056Z,10.02
2023-04-21T19:59:25.382Z,7.70
2023-04-21T20:01:53.805Z,7.88
2023-04-21T20:04:23.739Z,7.60
2023-04-21T20:06:52.537Z,7.88
2023-04-21T20:09:21.017Z,7.60
2023-04-21T20:11:49.507Z,7.00
2023-04-21T20:14:18.930Z,7.97
2023-04-21T20:16:50.052Z,6.95
2023-04-21T20:19:18.409Z,7.65
2023-04-21T20:21:50.866Z,7.20
2023-04-21T20:24:19.581Z,8.07
2023-04-21T20:26:48.091Z,7.15
2023-04-21T20:29:19.343Z,7.65
2023-04-21T20:31:47.811Z,7.20
2023-04-21T20:34:18.972Z,7.68
2023-04-21T20:36:48.584Z,7.65
2023-04-21T20:39:18.931Z,8.00
2023-04-21T20:41:51.036Z,7.95
2023-04-21T20:44:32.739Z,7.95
2023-04-21T20:47:01.767Z,8.25
2023-04-21T20:49:30.144Z,8.13
2023-04-21T20:52:00.675Z,8.63
2023-04-21T20:54:28.973Z,8.25
2023-04-21T20:56:57.207Z,8.82
2023-04-21T20:59:25.384Z,8.82
2023-04-21T21:01:53.543Z,8.90
2023-04-21T21:04:21.939Z,8.43
2023-04-21T21:06:50.367Z,9.38
2023-04-21T21:09:20.649Z,8.25
2023-04-21T21:11:48.996Z,8.68
2023-04-21T21:14:17.614Z,9.30
2023-04-21T21:16:45.859Z,9.20
2023-04-21T21:19:14.168Z,9.30
2023-04-21T21:21:42.397Z,9.70
2023-04-21T21:24:10.525Z,9.82
2023-04-21T21:26:42.688Z,9.48
2023-04-21T21:29:11.220Z,9.63
2023-04-21T21:31:39.500Z,10.70
2023-04-21T21:34:08.104Z,9.60
2023-04-21T21:36:36.487Z,10.23
2023-04-21T21:39:07.745Z,10.52
2023-04-21T21:41:37.260Z,10.70
2023-04-21T21:44:07.777Z,10.35
2023-04-21T21:46:36.444Z,10.55
2023-04-21T21:49:04.800Z,10.88
2023-04-21T21:51:33.089Z,10.80
2023-04-21T21:54:01.241Z,11.85
2023-04-21T21:56:29.532Z,10.85
2023-04-21T21:58:57.717Z,11.45
2023-04-21T22:01:27.483Z,11.82
2023-04-21T22:03:56.544Z,11.73
2023-04-21T22:06:27.756Z,12.38
2023-04-21T22:08:56.082Z,11.50
2023-04-21T22:11:24.206Z,12.27
2023-04-21T22:13:52.559Z,12.00
2023-04-21T22:16:21.025Z,11.68
2023-04-21T22:18:50.957Z,11.68
2023-04-21T22:21:20.608Z,11.20
2023-04-21T22:23:48.834Z,10.75
2023-04-21T22:26:17.008Z,11.13
2023-04-21T22:28:49.860Z,12.32
2023-04-21T22:31:18.672Z,11.57
2023-04-21T22:33:46.899Z,11.25
2023-04-21T22:36:16.695Z,10.75
2023-04-21T22:38:45.826Z,10.68
2023-04-21T22:41:14.113Z,11.52
2023-04-21T22:43:42.419Z,10.57
2023-04-21T22:46:10.720Z,11.07
2023-04-21T22:48:38.862Z,10.70
2023-04-21T22:51:08.210Z,11.25
2023-04-21T22:53:37.817Z,10.55
2023-04-21T22:56:06.618Z,10.60
2023-04-21T22:58:34.798Z,10.35
2023-04-21T23:01:03.303Z,10.52
2023-04-21T23:03:31.714Z,10.90
2023-04-21T23:06:00.116Z,10.82
2023-04-21T23:08:28.412Z,11.23
2023-04-21T23:10:58.245Z,11.55
2023-04-21T23:13:26.664Z,11.85
2023-04-21T23:15:54.878Z,13.00
2023-04-21T23:18:22.951Z,12.27
2023-04-21T23:20:51.188Z,12.93
2023-04-21T23:23:19.570Z,11.48
2023-04-21T23:25:47.874Z,10.70
2023-04-21T23:28:17.355Z,11.38
2023-04-21T23:30:45.734Z,11.05
2023-04-21T23:33:13.917Z,10.52
2023-04-21T23:35:42.180Z,10.55
2023-04-21T23:38:10.369Z,10.20
2023-04-21T23:40:38.841Z,9.90
2023-04-21T23:43:06.987Z,9.82
2023-04-21T23:45:36.630Z,8.98
2023-04-21T23:48:04.922Z,9.27
2023-04-21T23:50:33.714Z,9.50
2023-04-21T23:53:02.081Z,9.93
2023-04-21T23:55:30.329Z,9.07
2023-04-21T23:57:58.518Z,9.45
